Time;durP1;ratioP1;P1;durP2;ratioP2;P2;SDS_P1;SDS_P2;PMS_P1;PMS_P2;Temp;Humidity;BMP_temperature;BMP_pressure;BME280_temperature;BME280_humidity;BME280_pressure;Samples;Min_cycle;Max_cycle;Signal;HPM_P1;HPM_P2
2023/05/02 00:01:54;;;;;;;;;;;10.85;37.96;;;;;;2673059;76;20354;-92
2023/05/02 00:05:22;;;;;;;;;;;10.72;39.20;;;;;;2673392;76;20726;-92
2023/05/02 00:08:50;;;;;;;;;;;10.80;39.12;;;;;;2674788;76;20347;-92
2023/05/02 00:12:19;;;;;;;;;;;10.84;38.49;;;;;;2674136;76;20314;-92
2023/05/02 00:15:47;;;;;;;;;;;10.80;37.79;;;;;;2674752;76;20312;-91
2023/05/02 00:19:15;;;;;;;;;;;10.75;37.29;;;;;;2674373;76;20578;-92
2023/05/02 00:22:43;;;;;;;;;;;10.71;36.73;;;;;;2674215;76;20438;-91
2023/05/02 00:26:12;;;;;;;;;;;10.59;36.29;;;;;;2675247;76;20918;-92
2023/05/02 00:29:40;;;;;;;;;;;10.51;35.06;;;;;;2674384;76;20309;-91
2023/05/02 00:33:08;;;;;;;;;;;10.41;34.12;;;;;;2674318;76;20353;-91
2023/05/02 00:36:36;;;;;;;;;;;10.34;34.08;;;;;;2677429;76;20265;-91
2023/05/02 00:40:04;;;;;;;;;;;10.29;34.08;;;;;;2674754;76;20348;-91
2023/05/02 00:43:33;;;;;;;;;;;10.23;34.21;;;;;;2674631;76;20334;-91
2023/05/02 00:47:01;;;;;;;;;;;10.16;34.61;;;;;;2674281;76;20334;-91
2023/05/02 00:50:29;;;;;;;;;;;10.14;34.25;;;;;;2674446;76;20356;-91
2023/05/02 00:53:57;;;;;;;;;;;10.07;34.69;;;;;;2674524;76;20302;-91
2023/05/02 00:57:25;;;;;;;;;;;10.06;34.19;;;;;;2674134;76;20345;-91
2023/05/02 01:00:53;;;;;;;;;;;9.99;34.41;;;;;;2673754;76;20323;-91
2023/05/02 01:04:21;;;;;;;;;;;9.99;34.63;;;;;;2673910;76;20318;-90
2023/05/02 01:07:50;;;;;;;;;;;9.95;34.15;;;;;;2674262;76;20356;-91
2023/05/02 01:11:19;;;;;;;;;;;9.94;33.85;;;;;;2673647;76;20351;-90
2023/05/02 01:14:47;;;;;;;;;;;9.94;33.86;;;;;;2674062;76;20741;-91
2023/05/02 01:18:15;;;;;;;;;;;9.91;33.80;;;;;;2674721;76;20349;-91
2023/05/02 01:21:43;;;;;;;;;;;9.88;34.47;;;;;;2673131;76;20366;-90
2023/05/02 01:25:11;;;;;;;;;;;9.86;34.37;;;;;;2674011;76;20386;-91
2023/05/02 01:28:40;;;;;;;;;;;9.88;34.57;;;;;;2674375;76;20419;-91
2023/05/02 01:32:08;;;;;;;;;;;9.82;36.00;;;;;;2672264;76;20385;-91
2023/05/02 01:35:36;;;;;;;;;;;9.86;37.05;;;;;;2673809;76;20306;-92
2023/05/02 01:39:06;;;;;;;;;;;9.97;36.15;;;;;;2673633;76;20365;-91
2023/05/02 01:42:34;;;;;;;;;;;9.94;36.14;;;;;;2673605;76;20348;-91
2023/05/02 01:46:03;;;;;;;;;;;9.88;36.40;;;;;;2673570;76;20307;-91
2023/05/02 01:49:31;;;;;;;;;;;9.86;35.86;;;;;;2673902;76;20811;-91
2023/05/02 01:53:00;;;;;;;;;;;9.83;35.55;;;;;;2673175;76;20312;-91
2023/05/02 01:56:28;;;;;;;;;;;9.76;36.01;;;;;;2673851;76;20361;-91
2023/05/02 01:59:56;;;;;;;;;;;9.74;36.43;;;;;;2673880;76;20331;-91
2023/05/02 02:03:24;;;;;;;;;;;9.74;36.07;;;;;;2673158;76;20325;-91
2023/05/02 02:06:52;;;;;;;;;;;9.61;37.88;;;;;;2673639;76;20324;-91
2023/05/02 02:10:20;;;;;;;;;;;9.60;39.31;;;;;;2673772;76;20301;-91
2023/05/02 02:13:49;;;;;;;;;;;9.59;38.76;;;;;;2673224;76;20847;-91
2023/05/02 02:17:17;;;;;;;;;;;9.71;36.37;;;;;;2673788;76;20313;-91
2023/05/02 02:20:45;;;;;;;;;;;9.71;35.57;;;;;;2673489;76;20424;-91
2023/05/02 02:24:13;;;;;;;;;;;9.67;35.87;;;;;;2676534;76;20364;-91
2023/05/02 02:27:41;;;;;;;;;;;9.65;35.38;;;;;;2676806;76;20314;-91
2023/05/02 02:31:10;;;;;;;;;;;9.61;35.25;;;;;;2673704;76;20360;-91
2023/05/02 02:34:38;;;;;;;;;;;9.56;36.02;;;;;;2673774;76;20345;-91
2023/05/02 02:38:06;;;;;;;;;;;9.53;35.78;;;;;;2673989;76;20341;-91
2023/05/02 02:41:34;;;;;;;;;;;9.54;35.64;;;;;;2673624;76;20339;-91
2023/05/02 02:45:02;;;;;;;;;;;9.49;35.98;;;;;;2673719;76;20344;-91
2023/05/02 02:48:30;;;;;;;;;;;9.46;36.03;;;;;;2672928;76;20354;-91
2023/05/02 02:51:58;;;;;;;;;;;9.38;37.33;;;;;;2673347;76;20309;-91
2023/05/02 02:55:28;;;;;;;;;;;9.39;37.50;;;;;;2673746;76;20321;-91
2023/05/02 02:58:56;;;;;;;;;;;9.41;36.04;;;;;;2674130;76;20341;-91
2023/05/02 03:02:29;;;;;;;;;;;9.39;35.89;;;;;;2673217;76;20383;-91
2023/05/02 03:05:55;;;;;;;;;;;9.39;34.95;;;;;;2673697;76;20854;-91
2023/05/02 03:09:24;;;;;;;;;;;9.30;36.19;;;;;;2674337;76;20314;-91
2023/05/02 03:12:57;;;;;;;;;;;9.27;35.46;;;;;;2673661;76;20338;-91
2023/05/02 03:16:22;;;;;;;;;;;9.25;35.47;;;;;;2679289;76;20237;-96
2023/05/02 03:19:50;;;;;;;;;;;9.26;34.53;;;;;;2688230;76;20280;-96
2023/05/02 03:23:18;;;;;;;;;;;9.21;33.97;;;;;;2687838;76;20263;-96
2023/05/02 03:26:47;;;;;;;;;;;9.18;33.84;;;;;;2688270;76;20265;-96
2023/05/02 03:30:15;;;;;;;;;;;9.07;35.64;;;;;;2687495;76;20652;-96
2023/05/02 03:33:43;;;;;;;;;;;9.07;35.09;;;;;;2687059;76;20285;-96
2023/05/02 03:37:11;;;;;;;;;;;9.04;34.34;;;;;;2687278;76;20254;-96
2023/05/02 03:40:39;;;;;;;;;;;8.93;36.17;;;;;;2687003;76;20231;-96
2023/05/02 03:44:07;;;;;;;;;;;8.91;37.62;;;;;;2687307;76;20242;-96
2023/05/02 03:47:35;;;;;;;;;;;8.95;35.54;;;;;;2687174;76;20265;-96
2023/05/02 03:51:03;;;;;;;;;;;8.93;34.72;;;;;;2686672;76;20302;-96
2023/05/02 03:54:32;;;;;;;;;;;8.90;36.06;;;;;;2686883;76;20453;-96
2023/05/02 03:58:00;;;;;;;;;;;8.94;33.67;;;;;;2688032;76;20503;-96
2023/05/02 04:01:28;;;;;;;;;;;8.86;34.76;;;;;;2687058;76;20265;-96
2023/05/02 04:04:56;;;;;;;;;;;8.88;34.39;;;;;;2687739;76;20254;-96
2023/05/02 04:08:24;;;;;;;;;;;9.00;32.89;;;;;;2687391;76;20246;-96
2023/05/02 04:11:52;;;;;;;;;;;9.04;32.12;;;;;;2687477;76;20271;-96
2023/05/02 04:15:20;;;;;;;;;;;9.09;31.96;;;;;;2687333;76;20235;-96
2023/05/02 04:18:48;;;;;;;;;;;9.23;31.77;;;;;;2687552;76;20268;-96
2023/05/02 04:22:16;;;;;;;;;;;9.33;31.94;;;;;;2687408;76;20293;-96
2023/05/02 04:25:44;;;;;;;;;;;9.44;31.86;;;;;;2687651;76;20218;-96
2023/05/02 04:29:13;;;;;;;;;;;9.55;31.68;;;;;;2687555;76;20211;-96
2023/05/02 04:32:41;;;;;;;;;;;9.72;31.65;;;;;;2686921;76;20274;-96
2023/05/02 04:36:09;;;;;;;;;;;9.88;31.72;;;;;;2687124;76;20234;-96
2023/05/02 04:39:37;;;;;;;;;;;10.01;31.90;;;;;;2687370;76;20282;-96
2023/05/02 04:43:06;;;;;;;;;;;10.12;31.99;;;;;;2687243;76;20243;-96
2023/05/02 04:46:34;;;;;;;;;;;10.13;32.35;;;;;;2686876;76;20216;-96
2023/05/02 04:50:02;;;;;;;;;;;10.19;32.48;;;;;;2687790;76;20214;-96
2023/05/02 04:53:30;;;;;;;;;;;10.30;32.71;;;;;;2686765;76;20220;-96
2023/05/02 04:57:01;;;;;;;;;;;10.19;33.34;;;;;;2686880;76;20223;-96
2023/05/02 05:00:28;;;;;;;;;;;10.43;33.23;;;;;;2684959;76;20340;-96
2023/05/02 05:03:56;;;;;;;;;;;10.52;33.12;;;;;;2685187;76;20262;-96
2023/05/02 05:07:27;;;;;;;;;;;10.70;33.16;;;;;;2686440;76;20305;-96
2023/05/02 05:11:03;;;;;;;;;;;10.86;33.04;;;;;;2688929;76;20288;-96
2023/05/02 05:14:28;;;;;;;;;;;11.01;32.89;;;;;;2688218;76;20303;-96
2023/05/02 05:17:58;;;;;;;;;;;11.12;32.47;;;;;;2688511;76;20258;-96
2023/05/02 05:21:38;;;;;;;;;;;;;;;;;;;;;
2023/05/02 05:25:00;;;;;;;;;;;11.16;32.05;;;;;;2687460;76;20263;-96
2023/05/02 05:28:28;;;;;;;;;;;11.20;32.45;;;;;;2686161;76;20262;-96
2023/05/02 05:32:00;;;;;;;;;;;11.22;33.02;;;;;;2686066;76;20298;-94
2023/05/02 05:35:28;;;;;;;;;;;11.51;32.57;;;;;;2684662;76;20351;-93
2023/05/02 05:38:56;;;;;;;;;;;11.78;32.31;;;;;;2684837;76;20273;-94
2023/05/02 05:42:25;;;;;;;;;;;11.90;31.86;;;;;;2682973;76;20301;-93
2023/05/02 05:46:20;;;;;;;;;;;12.16;31.83;;;;;;2684239;76;20273;-94
2023/05/02 05:49:46;;;;;;;;;;;12.34;31.54;;;;;;2684887;76;20295;-94
2023/05/02 05:53:23;;;;;;;;;;;12.41;30.64;;;;;;2685202;76;20293;-94
2023/05/02 05:56:52;;;;;;;;;;;12.42;30.81;;;;;;2684504;76;20311;-94
2023/05/02 06:00:20;;;;;;;;;;;12.34;30.04;;;;;;2685174;76;20618;-94
2023/05/02 06:03:50;;;;;;;;;;;12.55;30.33;;;;;;2685428;76;20304;-94
2023/05/02 06:07:19;;;;;;;;;;;12.51;30.69;;;;;;2683245;76;20304;-94
2023/05/02 06:10:47;;;;;;;;;;;12.45;30.48;;;;;;2683048;76;20254;-94
2023/05/02 06:14:21;;;;;;;;;;;12.44;30.31;;;;;;2685432;76;20289;-94
2023/05/02 06:17:49;;;;;;;;;;;12.52;30.80;;;;;;2684950;76;20474;-94
2023/05/02 06:21:17;;;;;;;;;;;12.17;30.12;;;;;;2685211;76;20289;-94
2023/05/02 06:24:53;;;;;;;;;;;12.33;31.35;;;;;;2684364;76;20462;-95
2023/05/02 06:31:54;;;;;;;;;;;13.19;31.16;;;;;;2685179;76;20326;-95
2023/05/02 06:35:27;;;;;;;;;;;13.25;29.98;;;;;;2684665;76;20296;-93
2023/05/02 06:38:53;;;;;;;;;;;13.54;29.58;;;;;;2685132;76;20510;-93
2023/05/02 06:42:24;;;;;;;;;;;13.68;28.30;;;;;;2685669;76;20320;-93
2023/05/02 06:45:52;;;;;;;;;;;14.22;29.52;;;;;;2685853;76;20290;-93
2023/05/02 06:49:20;;;;;;;;;;;14.11;26.26;;;;;;2685799;76;20238;-93
2023/05/02 06:56:26;;;;;;;;;;;14.59;24.46;;;;;;2685989;76;20302;-93
2023/05/02 07:00:09;;;;;;;;;;;15.15;25.04;;;;;;2685566;76;20265;-94
2023/05/02 07:03:24;;;;;;;;;;;15.56;23.90;;;;;;2685596;76;20259;-94
2023/05/02 07:06:56;;;;;;;;;;;15.43;22.05;;;;;;2685458;76;20294;-93
2023/05/02 07:10:27;;;;;;;;;;;15.82;23.46;;;;;;2685122;76;20314;-93
2023/05/02 07:13:55;;;;;;;;;;;15.95;23.00;;;;;;2685888;76;20243;-93
2023/05/02 07:17:24;;;;;;;;;;;15.59;20.60;;;;;;2685648;76;20234;-93
2023/05/02 07:20:52;;;;;;;;;;;16.00;21.82;;;;;;2684977;76;20285;-93
2023/05/02 07:24:23;;;;;;;;;;;16.27;21.76;;;;;;2685926;76;20221;-94
2023/05/02 07:27:52;;;;;;;;;;;16.58;23.08;;;;;;2685587;76;20481;-94
2023/05/02 07:31:25;;;;;;;;;;;16.52;21.14;;;;;;2685371;76;20467;-94
2023/05/02 07:35:02;;;;;;;;;;;16.69;21.64;;;;;;2685487;76;20277;-94
2023/05/02 07:38:33;;;;;;;;;;;15.93;18.40;;;;;;2685213;76;20283;-93
2023/05/02 07:42:03;;;;;;;;;;;16.00;20.43;;;;;;2685577;76;20277;-94
2023/05/02 07:45:39;;;;;;;;;;;15.98;18.94;;;;;;2685341;76;20268;-94
2023/05/02 07:52:44;;;;;;;;;;;17.09;20.26;;;;;;2685181;76;20278;-93
2023/05/02 08:00:33;;;;;;;;;;;17.45;20.11;;;;;;2685267;76;20273;-94
2023/05/02 08:04:25;;;;;;;;;;;;;;;;;;;;;
2023/05/02 08:08:07;;;;;;;;;;;17.55;15.89;;;;;;2685011;76;20269;-95
2023/05/02 08:15:56;;;;;;;;;;;17.60;14.16;;;;;;2685566;76;20297;-95
2023/05/02 08:23:52;;;;;;;;;;;17.52;13.06;;;;;;2683378;76;20294;-94
2023/05/02 08:27:35;;;;;;;;;;;18.09;14.74;;;;;;2684813;76;20300;-94
2023/05/02 08:31:12;;;;;;;;;;;18.73;16.06;;;;;;2684193;76;20311;-94
2023/05/02 08:35:02;;;;;;;;;;;19.35;16.87;;;;;;2685354;76;20362;-95
2023/05/02 08:38:30;;;;;;;;;;;18.87;12.59;;;;;;2684110;76;20286;-94
2023/05/02 08:42:26;;;;;;;;;;;;;;;;;;;;;
2023/05/02 08:46:09;;;;;;;;;;;20.12;14.86;;;;;;2685536;76;20331;-95
2023/05/02 08:50:11;;;;;;;;;;;20.11;10.13;;;;;;2685140;76;20276;-95
2023/05/02 08:53:43;;;;;;;;;;;19.58;8.79;;;;;;2684979;76;21212;-94
2023/05/02 08:57:31;;;;;;;;;;;19.87;10.35;;;;;;2685848;76;20287;-95
2023/05/02 09:01:09;;;;;;;;;;;20.07;9.66;;;;;;2683985;76;20306;-94
2023/05/02 09:08:47;;;;;;;;;;;20.24;8.03;;;;;;2683760;76;20274;-94
2023/05/02 09:12:50;;;;;;;;;;;20.72;7.96;;;;;;2684844;76;20501;-94
2023/05/02 09:19:47;;;;;;;;;;;20.59;4.38;;;;;;2685275;76;20252;-94
2023/05/02 09:26:54;;;;;;;;;;;21.18;7.30;;;;;;2686328;76;20269;-95
2023/05/02 09:30:29;;;;;;;;;;;20.59;6.44;;;;;;2685488;76;20477;-94
2023/05/02 09:34:08;;;;;;;;;;;19.87;6.09;;;;;;2684636;76;20316;-95
2023/05/02 09:37:37;;;;;;;;;;;19.58;7.43;;;;;;2685183;76;20279;-95
2023/05/02 09:41:05;;;;;;;;;;;19.39;7.96;;;;;;2684963;76;20263;-94
2023/05/02 09:44:33;;;;;;;;;;;19.14;8.12;;;;;;2685411;76;20215;-94
2023/05/02 09:48:01;;;;;;;;;;;18.92;7.67;;;;;;2685230;76;20266;-94
2023/05/02 09:51:30;;;;;;;;;;;18.98;7.50;;;;;;2684748;76;20266;-95
2023/05/02 09:54:58;;;;;;;;;;;19.41;7.69;;;;;;2684827;76;20238;-94
2023/05/02 09:58:26;;;;;;;;;;;19.95;8.47;;;;;;2684372;76;20305;-93
2023/05/02 10:01:57;;;;;;;;;;;19.95;6.59;;;;;;2683081;76;20375;-94
2023/05/02 10:05:25;;;;;;;;;;;20.46;8.15;;;;;;2682821;76;20307;-94
2023/05/02 10:08:54;;;;;;;;;;;19.94;4.19;;;;;;2681327;76;20243;-94
2023/05/02 10:12:22;;;;;;;;;;;19.70;3.64;;;;;;2680496;76;20393;-94
2023/05/02 10:15:50;;;;;;;;;;;20.27;6.18;;;;;;2677921;76;20355;-94
2023/05/02 10:19:18;;;;;;;;;;;19.68;3.66;;;;;;2678852;76;20278;-94
2023/05/02 10:22:47;;;;;;;;;;;19.70;5.89;;;;;;2677626;76;20750;-93
2023/05/02 10:26:15;;;;;;;;;;;18.43;4.83;;;;;;2676412;76;20304;-94
2023/05/02 10:29:48;;;;;;;;;;;18.80;8.02;;;;;;2675463;76;20334;-93
2023/05/02 10:33:16;;;;;;;;;;;18.56;7.99;;;;;;2674572;76;20779;-94
2023/05/02 10:36:44;;;;;;;;;;;18.69;8.60;;;;;;2673892;76;20303;-93
2023/05/02 10:40:12;;;;;;;;;;;18.92;8.95;;;;;;2673603;76;20354;-93
2023/05/02 10:43:46;;;;;;;;;;;18.80;8.14;;;;;;2672989;76;20388;-93
2023/05/02 10:47:14;;;;;;;;;;;18.55;6.73;;;;;;2671888;76;20323;-93
2023/05/02 10:50:42;;;;;;;;;;;19.14;7.79;;;;;;2673267;76;20722;-93
2023/05/02 10:54:10;;;;;;;;;;;19.39;6.96;;;;;;2671935;76;20988;-93
2023/05/02 10:57:38;;;;;;;;;;;19.11;5.15;;;;;;2672403;76;20808;-92
2023/05/02 11:01:06;;;;;;;;;;;19.54;5.74;;;;;;2671991;76;20331;-92
2023/05/02 11:04:34;;;;;;;;;;;19.14;3.63;;;;;;2671359;76;20383;-92
2023/05/02 11:08:02;;;;;;;;;;;18.61;2.95;;;;;;2672437;76;20337;-93
2023/05/02 11:11:30;;;;;;;;;;;19.58;3.75;;;;;;2671558;76;20396;-92
2023/05/02 11:14:58;;;;;;;;;;;19.62;3.45;;;;;;2671651;76;20369;-92
2023/05/02 11:18:27;;;;;;;;;;;19.69;2.47;;;;;;2672332;76;20798;-91
2023/05/02 11:21:58;;;;;;;;;;;19.54;1.06;;;;;;2672234;76;20350;-93
2023/05/02 11:25:26;;;;;;;;;;;19.98;1.69;;;;;;2671827;76;20319;-92
2023/05/02 11:28:54;;;;;;;;;;;20.25;0.36;;;;;;2671980;76;20337;-92
2023/05/02 11:32:22;;;;;;;;;;;20.40;0.54;;;;;;2672200;76;20363;-92
2023/05/02 11:35:50;;;;;;;;;;;20.40;-1.36;;;;;;2672065;76;20400;-92
2023/05/02 11:39:19;;;;;;;;;;;20.84;-1.31;;;;;;2672755;76;20300;-92
2023/05/02 11:42:47;;;;;;;;;;;20.76;-2.03;;;;;;2672834;76;20374;-92
2023/05/02 11:46:18;;;;;;;;;;;21.08;-0.98;;;;;;2672178;76;20311;-92
2023/05/02 11:49:45;;;;;;;;;;;21.45;0.65;;;;;;2672282;76;20350;-92
2023/05/02 11:53:13;;;;;;;;;;;21.32;0.32;;;;;;2672604;76;20381;-92
2023/05/02 11:56:42;;;;;;;;;;;21.33;3.69;;;;;;2671363;76;20352;-92
2023/05/02 12:00:10;;;;;;;;;;;21.39;4.62;;;;;;2671494;76;20365;-92
2023/05/02 12:03:38;;;;;;;;;;;21.42;7.28;;;;;;2670386;76;20302;-92
2023/05/02 12:07:06;;;;;;;;;;;21.57;7.53;;;;;;2672152;76;20437;-92
2023/05/02 12:10:34;;;;;;;;;;;21.72;7.68;;;;;;2671704;76;20350;-92
2023/05/02 12:14:02;;;;;;;;;;;22.46;9.04;;;;;;2672119;76;20346;-91
2023/05/02 12:17:31;;;;;;;;;;;23.26;9.17;;;;;;2670687;76;20358;-92
2023/05/02 12:20:59;;;;;;;;;;;23.29;7.16;;;;;;2670225;76;20331;-92
2023/05/02 12:24:28;;;;;;;;;;;23.35;8.27;;;;;;2671378;76;20341;-92
2023/05/02 12:27:56;;;;;;;;;;;23.83;8.82;;;;;;2671775;76;20350;-93
2023/05/02 12:31:24;;;;;;;;;;;24.49;9.23;;;;;;2672247;76;20338;-91
2023/05/02 12:34:52;;;;;;;;;;;24.91;10.19;;;;;;2674633;76;20310;-91
2023/05/02 12:38:21;;;;;;;;;;;25.05;10.76;;;;;;2672830;76;20807;-93
2023/05/02 12:41:50;;;;;;;;;;;24.64;6.90;;;;;;2672514;76;20322;-91
2023/05/02 12:45:20;;;;;;;;;;;22.79;-2.41;;;;;;2675568;76;20329;-92
2023/05/02 12:48:51;;;;;;;;;;;22.71;4.72;;;;;;2680134;76;20324;-91
2023/05/02 12:52:23;;;;;;;;;;;22.52;5.45;;;;;;2675744;76;20311;-92
2023/05/02 12:55:51;;;;;;;;;;;22.58;6.54;;;;;;2676518;76;20335;-91
2023/05/02 12:59:19;;;;;;;;;;;22.71;6.07;;;;;;2677851;76;20340;-90
2023/05/02 13:02:47;;;;;;;;;;;22.85;8.75;;;;;;2673523;76;20348;-92
2023/05/02 13:06:16;;;;;;;;;;;22.83;8.20;;;;;;2673731;76;20363;-90
2023/05/02 13:09:44;;;;;;;;;;;22.42;9.96;;;;;;2672705;76;20340;-90
2023/05/02 13:13:23;;;;;;;;;;;21.57;11.13;;;;;;2675232;76;20349;-94
2023/05/02 13:16:47;;;;;;;;;;;19.94;8.49;;;;;;2676647;76;20348;-91
2023/05/02 13:20:17;;;;;;;;;;;18.64;10.51;;;;;;2675594;76;20334;-93
2023/05/02 13:23:46;;;;;;;;;;;17.77;12.43;;;;;;2678205;76;20345;-91
2023/05/02 13:27:18;;;;;;;;;;;17.04;12.96;;;;;;2680613;76;20297;-93
2023/05/02 13:30:51;;;;;;;;;;;15.96;12.46;;;;;;2684611;76;20315;-94
2023/05/02 13:34:21;;;;;;;;;;;14.85;17.79;;;;;;2686648;76;20263;-91
2023/05/02 13:37:50;;;;;;;;;;;14.24;20.60;;;;;;2682961;76;20366;-93
2023/05/02 13:41:19;;;;;;;;;;;13.51;21.98;;;;;;2678525;76;20316;-92
2023/05/02 13:44:51;;;;;;;;;;;13.52;24.71;;;;;;2674498;76;20340;-91
2023/05/02 13:48:19;;;;;;;;;;;13.54;26.11;;;;;;2674050;76;20342;-91
2023/05/02 13:51:47;;;;;;;;;;;13.56;26.47;;;;;;2675038;76;20305;-91
2023/05/02 13:55:18;;;;;;;;;;;13.78;27.62;;;;;;2676444;76;20431;-92
2023/05/02 13:58:51;;;;;;;;;;;14.05;27.82;;;;;;2676257;76;20349;-92
2023/05/02 14:02:21;;;;;;;;;;;14.13;27.68;;;;;;2675598;76;20310;-92
2023/05/02 14:05:51;;;;;;;;;;;14.57;27.67;;;;;;2673585;76;20748;-92
2023/05/02 14:09:24;;;;;;;;;;;15.13;27.09;;;;;;2676108;76;20309;-92
2023/05/02 14:12:54;;;;;;;;;;;15.30;26.14;;;;;;2680260;76;20307;-92
2023/05/02 14:16:23;;;;;;;;;;;15.61;25.70;;;;;;2680150;76;20337;-92
2023/05/02 14:19:54;;;;;;;;;;;15.65;24.16;;;;;;2678852;76;20377;-93
2023/05/02 14:23:30;;;;;;;;;;;15.73;23.30;;;;;;2680516;76;20805;-92
2023/05/02 14:27:06;;;;;;;;;;;16.26;22.40;;;;;;2680425;76;20326;-94
2023/05/02 14:30:34;;;;;;;;;;;16.35;22.02;;;;;;2682323;76;20293;-92
2023/05/02 14:34:01;;;;;;;;;;;16.21;22.59;;;;;;2681570;76;20328;-91
2023/05/02 14:37:29;;;;;;;;;;;16.27;23.18;;;;;;2677759;76;20321;-91
2023/05/02 14:40:57;;;;;;;;;;;16.70;23.15;;;;;;2679813;76;20482;-92
2023/05/02 14:44:25;;;;;;;;;;;16.52;21.05;;;;;;2674180;76;20379;-92
2023/05/02 14:47:54;;;;;;;;;;;17.00;22.54;;;;;;2673900;76;20304;-92
2023/05/02 14:51:24;;;;;;;;;;;17.53;22.35;;;;;;2673706;76;20348;-91
2023/05/02 14:54:52;;;;;;;;;;;17.95;21.82;;;;;;2674601;76;20360;-92
2023/05/02 14:58:20;;;;;;;;;;;18.02;21.47;;;;;;2672299;76;20391;-92
2023/05/02 15:01:48;;;;;;;;;;;20.92;20.60;;;;;;2673883;76;20345;-91
2023/05/02 15:05:17;;;;;;;;;;;20.12;16.35;;;;;;2674914;76;20738;-92
2023/05/02 15:08:45;;;;;;;;;;;19.98;17.38;;;;;;2675070;76;20805;-92
2023/05/02 15:12:13;;;;;;;;;;;20.71;17.32;;;;;;2674842;76;20316;-90
2023/05/02 15:15:41;;;;;;;;;;;21.63;14.16;;;;;;2674755;76;20791;-91
2023/05/02 15:19:10;;;;;;;;;;;20.81;15.00;;;;;;2674853;76;20331;-92
2023/05/02 15:22:40;;;;;;;;;;;21.43;15.17;;;;;;2674480;76;20784;-92
2023/05/02 15:26:08;;;;;;;;;;;22.47;13.06;;;;;;2674691;76;20335;-92
2023/05/02 15:29:36;;;;;;;;;;;21.17;13.22;;;;;;2673712;76;20306;-92
2023/05/02 15:33:04;;;;;;;;;;;19.84;16.87;;;;;;2673717;76;20789;-91
2023/05/02 15:36:36;;;;;;;;;;;18.51;18.92;;;;;;2673762;76;20424;-91
2023/05/02 15:40:03;;;;;;;;;;;17.72;21.76;;;;;;2673663;76;20312;-91
2023/05/02 15:43:34;;;;;;;;;;;17.11;21.84;;;;;;2675064;76;20745;-91
2023/05/02 15:47:02;;;;;;;;;;;16.64;23.32;;;;;;2674465;76;20732;-91
2023/05/02 15:50:30;;;;;;;;;;;16.33;24.17;;;;;;2673587;76;20373;-91
2023/05/02 15:53:58;;;;;;;;;;;16.10;24.94;;;;;;2673316;76;20316;-91
2023/05/02 15:57:26;;;;;;;;;;;15.74;25.74;;;;;;2674422;76;20370;-91
2023/05/02 16:00:57;;;;;;;;;;;15.32;25.61;;;;;;2674146;76;20303;-93
2023/05/02 16:04:27;;;;;;;;;;;14.83;25.68;;;;;;2674517;76;20340;-92
2023/05/02 16:07:55;;;;;;;;;;;14.58;27.23;;;;;;2674490;76;20332;-92
2023/05/02 16:11:23;;;;;;;;;;;14.42;28.64;;;;;;2674126;76;22124;-92
2023/05/02 16:14:51;;;;;;;;;;;14.05;29.19;;;;;;2676216;76;20349;-93
2023/05/02 16:18:21;;;;;;;;;;;13.54;30.02;;;;;;2677240;76;20744;-93
2023/05/02 16:21:49;;;;;;;;;;;13.11;30.24;;;;;;2677519;76;20312;-92
2023/05/02 16:25:17;;;;;;;;;;;12.80;31.38;;;;;;2676543;76;20314;-92
2023/05/02 16:28:46;;;;;;;;;;;12.63;32.57;;;;;;2679279;76;20300;-93
2023/05/02 16:32:19;;;;;;;;;;;12.40;33.31;;;;;;2683344;76;20311;-92
2023/05/02 16:35:44;;;;;;;;;;;12.32;35.71;;;;;;2682090;76;20752;-92
2023/05/02 16:39:12;;;;;;;;;;;12.30;38.25;;;;;;2679277;76;20330;-92
2023/05/02 16:42:40;;;;;;;;;;;12.32;39.65;;;;;;2678105;76;20329;-91
2023/05/02 16:46:08;;;;;;;;;;;12.30;40.53;;;;;;2678487;76;20328;-92
2023/05/02 16:49:38;;;;;;;;;;;12.25;40.88;;;;;;2680141;76;20313;-93
2023/05/02 16:53:06;;;;;;;;;;;12.44;41.10;;;;;;2679522;76;20777;-92
2023/05/02 16:56:35;;;;;;;;;;;12.41;40.69;;;;;;2681087;76;20299;-91
2023/05/02 17:00:03;;;;;;;;;;;12.50;41.00;;;;;;2678962;76;20302;-92
2023/05/02 17:03:31;;;;;;;;;;;12.49;40.59;;;;;;2678201;76;20328;-92
2023/05/02 17:06:59;;;;;;;;;;;12.53;40.78;;;;;;2677046;76;20790;-92
2023/05/02 17:10:27;;;;;;;;;;;12.70;41.00;;;;;;2677777;76;20755;-92
2023/05/02 17:13:55;;;;;;;;;;;12.80;40.30;;;;;;2677548;76;20309;-92
2023/05/02 17:17:23;;;;;;;;;;;12.90;39.78;;;;;;2677590;76;20330;-92
2023/05/02 17:20:52;;;;;;;;;;;13.02;39.78;;;;;;2677148;76;20372;-92
2023/05/02 17:24:20;;;;;;;;;;;13.06;38.72;;;;;;2677186;76;20332;-93
2023/05/02 17:27:48;;;;;;;;;;;13.14;38.78;;;;;;2677090;76;20417;-92
2023/05/02 17:31:17;;;;;;;;;;;13.11;37.98;;;;;;2677713;76;20340;-93
2023/05/02 17:34:45;;;;;;;;;;;13.09;37.93;;;;;;2677169;76;20786;-92
2023/05/02 17:38:13;;;;;;;;;;;13.14;37.99;;;;;;2677084;76;20317;-92
2023/05/02 17:41:41;;;;;;;;;;;13.10;37.35;;;;;;2679228;76;20446;-93
2023/05/02 17:45:09;;;;;;;;;;;12.94;36.13;;;;;;2677481;76;20309;-92
2023/05/02 17:48:37;;;;;;;;;;;12.87;35.50;;;;;;2677866;76;20340;-93
2023/05/02 17:52:05;;;;;;;;;;;12.82;35.54;;;;;;2677036;76;20329;-92
2023/05/02 17:55:33;;;;;;;;;;;12.76;34.79;;;;;;2677625;76;20350;-91
2023/05/02 17:59:02;;;;;;;;;;;12.66;34.31;;;;;;2677064;76;20333;-91
2023/05/02 18:02:30;;;;;;;;;;;12.60;34.90;;;;;;2676892;76;20354;-92
2023/05/02 18:06:01;;;;;;;;;;;12.57;35.43;;;;;;2677775;76;20320;-92
2023/05/02 18:09:29;;;;;;;;;;;12.60;35.29;;;;;;2677293;76;20316;-92
2023/05/02 18:12:57;;;;;;;;;;;12.60;35.04;;;;;;2677164;76;20355;-92
2023/05/02 18:16:25;;;;;;;;;;;12.53;34.38;;;;;;2676931;76;20794;-92
2023/05/02 18:19:54;;;;;;;;;;;12.33;34.73;;;;;;2677058;76;20357;-92
2023/05/02 18:23:22;;;;;;;;;;;12.32;35.34;;;;;;2677069;76;20347;-92
2023/05/02 18:26:50;;;;;;;;;;;12.22;34.69;;;;;;2677375;76;20312;-92
2023/05/02 18:30:18;;;;;;;;;;;11.97;34.95;;;;;;2676799;76;20307;-92
2023/05/02 18:33:47;;;;;;;;;;;11.75;35.69;;;;;;2676865;76;20355;-92
2023/05/02 18:37:15;;;;;;;;;;;11.69;34.90;;;;;;2677122;76;20322;-92
2023/05/02 18:40:48;;;;;;;;;;;11.59;34.18;;;;;;2676578;76;20349;-92
2023/05/02 18:44:13;;;;;;;;;;;11.51;33.53;;;;;;2676934;76;20890;-92
2023/05/02 18:47:41;;;;;;;;;;;11.37;33.02;;;;;;2676639;76;20305;-92
2023/05/02 18:51:09;;;;;;;;;;;11.33;32.99;;;;;;2675908;76;20361;-92
2023/05/02 18:54:38;;;;;;;;;;;11.23;32.39;;;;;;2676325;76;20331;-92
2023/05/02 18:58:09;;;;;;;;;;;11.16;31.77;;;;;;2677177;76;20336;-92
2023/05/02 19:01:40;;;;;;;;;;;11.09;31.06;;;;;;2676174;76;20403;-92
2023/05/02 19:05:11;;;;;;;;;;;11.03;31.42;;;;;;2677069;76;20321;-92
2023/05/02 19:08:44;;;;;;;;;;;11.00;31.35;;;;;;2675612;76;20312;-92
2023/05/02 19:12:09;;;;;;;;;;;10.95;30.74;;;;;;2678731;76;20353;-93
2023/05/02 19:15:46;;;;;;;;;;;10.84;29.66;;;;;;2680503;76;20345;-93
2023/05/02 19:19:16;;;;;;;;;;;10.73;28.75;;;;;;2681059;76;20321;-92
2023/05/02 19:22:50;;;;;;;;;;;10.67;28.32;;;;;;2678218;76;20327;-92
2023/05/02 19:26:14;;;;;;;;;;;10.60;27.90;;;;;;2677995;76;20719;-93
2023/05/02 19:29:42;;;;;;;;;;;10.54;27.23;;;;;;2677561;76;20389;-93
2023/05/02 19:33:10;;;;;;;;;;;10.48;26.76;;;;;;2677473;76;20359;-93
2023/05/02 19:36:38;;;;;;;;;;;10.38;26.49;;;;;;2677480;76;20348;-92
2023/05/02 19:40:07;;;;;;;;;;;10.30;26.00;;;;;;2675336;76;20335;-92
2023/05/02 19:43:35;;;;;;;;;;;10.21;25.43;;;;;;2675650;76;20307;-93
2023/05/02 19:47:05;;;;;;;;;;;10.13;25.47;;;;;;2675924;76;20733;-93
2023/05/02 19:50:36;;;;;;;;;;;10.07;25.25;;;;;;2675850;76;20310;-93
2023/05/02 19:54:04;;;;;;;;;;;9.99;25.15;;;;;;2676343;76;20341;-90
2023/05/02 19:57:32;;;;;;;;;;;9.94;25.05;;;;;;2679193;76;20877;-90
2023/05/02 20:01:06;;;;;;;;;;;9.89;24.78;;;;;;2680894;76;20354;-93
2023/05/02 20:04:31;;;;;;;;;;;9.80;24.94;;;;;;2680385;76;20320;-91
2023/05/02 20:07:59;;;;;;;;;;;9.75;24.93;;;;;;2679282;76;20337;-93
2023/05/02 20:11:31;;;;;;;;;;;9.68;24.73;;;;;;2682321;76;20306;-92
2023/05/02 20:15:01;;;;;;;;;;;9.63;24.34;;;;;;2684040;76;20390;-92
2023/05/02 20:18:32;;;;;;;;;;;9.55;23.95;;;;;;2683591;76;20326;-92
2023/05/02 20:22:02;;;;;;;;;;;9.51;23.94;;;;;;2685243;76;20303;-92
2023/05/02 20:25:30;;;;;;;;;;;9.44;23.63;;;;;;2681221;76;20317;-92
2023/05/02 20:28:59;;;;;;;;;;;9.36;23.21;;;;;;2680008;76;20323;-92
2023/05/02 20:32:27;;;;;;;;;;;9.27;23.11;;;;;;2681304;76;20350;-92
2023/05/02 20:36:02;;;;;;;;;;;9.22;22.92;;;;;;2681687;76;20317;-92
2023/05/02 20:39:30;;;;;;;;;;;9.18;22.94;;;;;;2682523;76;20372;-91
2023/05/02 20:43:05;;;;;;;;;;;9.10;22.73;;;;;;2682232;76;20328;-92
2023/05/02 20:46:33;;;;;;;;;;;9.06;22.66;;;;;;2680656;76;20336;-91
2023/05/02 20:50:01;;;;;;;;;;;9.00;22.36;;;;;;2678906;76;20309;-91
2023/05/02 20:53:30;;;;;;;;;;;8.92;22.49;;;;;;2681929;76;20312;-92
2023/05/02 20:56:58;;;;;;;;;;;8.87;22.28;;;;;;2682756;76;20334;-90
2023/05/02 21:00:26;;;;;;;;;;;8.85;22.18;;;;;;2683732;76;20381;-92
2023/05/02 21:03:55;;;;;;;;;;;8.81;22.51;;;;;;2683870;76;20300;-91
2023/05/02 21:07:23;;;;;;;;;;;8.76;22.40;;;;;;2682110;76;20457;-91